KAMA/AMA METAR and TAF weather

Enter ICAO airport designator
Station Type Date Time Source
KAMA METAR 2022/10/01 07:53 UTC NOAA

KAMA 010753Z AUTO 16010KT 10SM CLR 16/07 A3005 RMK AO2 SLP127 T01560067


Station Type Date Time Source
KAMA Decoded METAR 2022/10/01 07:53 UTC NOAA

AMARILLO INTERNATIONAL AIRPORT, TX, United States (KAMA) 35-13N 101-43W 1093M
Oct 01, 2022 - 03:53 AM EDT / 2022.10.01 0753 UTC
Wind: from the SSE (160 degrees) at 12 MPH (10 KT):0
Visibility: 10 mile(s):0
Sky conditions: clear
Temperature: 60.1 F (15.6 C)
Dew Point: 44.1 F (6.7 C)
Relative Humidity: 55%
Pressure (altimeter): 30.05 in. Hg (1017 hPa)
ob: KAMA 010753Z AUTO 16010KT 10SM CLR 16/07 A3005 RMK AO2 SLP127 T01560067
cycle: 8

Station Type Date Time Source
KAMA TAF 2022/10/01 06:33 UTC NOAA

TAF KAMA 010530Z 0106/0206 16011KT P6SM SCT200
FM011400 20011KT P6SM FEW150
FM011900 15011KT P6SM FEW100

Example: see airport list